TimeCST,TemperatureF,Dew PointF,Humidity,Sea Level PressureIn,VisibilityMPH,Wind Direction,Wind SpeedMPH,Gust SpeedMPH,PrecipitationIn,Events,Conditions,WindDirDegrees,DateUTC
12:13 AM,66.2,64.4,94,30.05,10.0,South,5.8,-,N/A,,Mostly Cloudy,170,2013-01-13 06:13:00
12:53 AM,66.0,64.0,93,30.05,10.0,South,3.5,-,N/A,,Overcast,170,2013-01-13 06:53:00
1:53 AM,66.0,64.0,93,30.04,10.0,South,10.4,-,N/A,,Overcast,180,2013-01-13 07:53:00
2:53 AM,66.0,64.0,93,30.05,10.0,South,3.5,-,N/A,,Overcast,170,2013-01-13 08:53:00
3:53 AM,64.9,64.0,97,30.02,10.0,SSE,4.6,-,N/A,,Mostly Cloudy,150,2013-01-13 09:53:00
4:53 AM,64.9,64.0,97,30.04,10.0,South,9.2,-,N/A,,Overcast,180,2013-01-13 10:53:00
5:34 AM,64.4,64.4,100,30.06,2.5,SSE,6.9,-,N/A,,Overcast,150,2013-01-13 11:34:00
5:49 AM,64.4,64.4,100,30.06,3.0,South,5.8,-,N/A,,Overcast,170,2013-01-13 11:49:00
5:53 AM,64.0,64.0,100,30.06,3.0,SSE,5.8,-,N/A,,Overcast,160,2013-01-13 11:53:00
6:53 AM,64.0,63.0,96,30.08,9.0,SSE,3.5,-,N/A,,Overcast,160,2013-01-13 12:53:00
7:22 AM,64.4,62.6,94,30.08,10.0,South,5.8,-,N/A,,Overcast,170,2013-01-13 13:22:00
7:53 AM,64.9,63.0,93,30.08,10.0,South,6.9,-,N/A,,Mostly Cloudy,170,2013-01-13 13:53:00
8:53 AM,68.0,64.0,87,30.10,10.0,SSE,10.4,-,N/A,,Mostly Cloudy,160,2013-01-13 14:53:00
9:48 AM,71.6,64.4,78,30.09,10.0,South,8.1,-,N/A,,Partly Cloudy,180,2013-01-13 15:48:00
9:53 AM,73.0,64.0,73,30.09,10.0,South,10.4,-,N/A,,Partly Cloudy,180,2013-01-13 15:53:00
10:53 AM,75.9,64.0,67,30.06,10.0,South,13.8,20.7,N/A,,Partly Cloudy,180,2013-01-13 16:53:00
11:53 AM,77.0,63.0,62,30.03,10.0,South,12.7,24.2,N/A,,Partly Cloudy,170,2013-01-13 17:53:00
12:53 PM,80.1,60.1,50,30.04,10.0,SSW,19.6,-,N/A,,Partly Cloudy,200,2013-01-13 18:53:00
1:53 PM,78.1,59.0,52,30.02,10.0,South,13.8,18.4,N/A,,Mostly Cloudy,180,2013-01-13 19:53:00
2:53 PM,78.1,60.1,54,30.03,10.0,SE,10.4,-,N/A,,Scattered Clouds,140,2013-01-13 20:53:00
3:53 PM,77.0,61.0,58,30.03,10.0,South,12.7,-,N/A,,Partly Cloudy,180,2013-01-13 21:53:00
4:53 PM,73.9,62.1,66,30.05,10.0,South,6.9,-,N/A,,Scattered Clouds,170,2013-01-13 22:53:00
5:53 PM,72.0,63.0,73,30.06,10.0,South,6.9,-,N/A,,Clear,170,2013-01-13 23:53:00
6:53 PM,71.1,63.0,75,30.08,10.0,South,9.2,-,N/A,,Mostly Cloudy,170,2013-01-14 00:53:00
7:53 PM,69.1,64.0,84,30.08,10.0,SSE,4.6,-,N/A,,Mostly Cloudy,160,2013-01-14 01:53:00
8:53 PM,68.0,64.9,90,30.08,10.0,South,5.8,-,N/A,,Overcast,170,2013-01-14 02:53:00
9:35 PM,68.0,64.4,88,30.09,10.0,SSE,5.8,-,N/A,,Mostly Cloudy,160,2013-01-14 03:35:00
9:53 PM,68.0,64.9,90,30.09,10.0,South,6.9,-,N/A,,Mostly Cloudy,170,2013-01-14 03:53:00
10:53 PM,68.0,64.9,90,30.09,10.0,SSE,5.8,-,N/A,,Mostly Cloudy,160,2013-01-14 04:53:00
11:53 PM,69.1,66.0,90,30.08,10.0,South,6.9,-,N/A,,Overcast,170,2013-01-14 05:53:00